KFRI

Details ICAO KFRI (FRI)
Name MARSHALL AAF
Region United States
Timezone America/Chicago (UTC-5.0)
Plans Departing 6
Arriving 6
Stats Elevation 1,063 ft / 324 m (AMSL)
Location 39.053958° -96.764498°
Runways 2
Magnetic Variation 3.154° E
Sunrise 2018-05-26 11:07:30 UTC / 2018-05-26 06:07:30 Local
Sunset 2018-05-27 01:43:38 UTC / 2018-05-26 20:43:38 Local
Advertisement - Login to hide

Runways

ID Width Length Bearing (true) Bearing (mag) Surface Threshold Offset Overrun Length
04 150 ft / 46 m 4,516 ft / 1,376 m 50.22° 47.07° Concrete 0 ft / 0 m 0 ft / 0 m
18 150 ft / 46 m 4,508 ft / 1,374 m 185.07° 181.92° Concrete 0 ft / 0 m 0 ft / 0 m
22 150 ft / 46 m 4,516 ft / 1,376 m 230.23° 227.08° Concrete 0 ft / 0 m 0 ft / 0 m
36 150 ft / 46 m 4,508 ft / 1,374 m 5.07° 1.92° Concrete 0 ft / 0 m 0 ft / 0 m

Map

Weather


0- 5 10 15 20 25 30 35+ Temperature / ° C

Clouds and Precipitation
Forecast for 2018-05-26 06:00 UTC. Updated 2 hours ago

Ground ~20,000 ft ~40,000 ft Winds

METAR

KFRI 260556Z AUTO 24005KT 10SM CLR 23/18 A2980 RMK AO2 SLP079 T02310184 10335 20225 403430199 51007

TAF

Not found

Frequencies

Recorded 118.37 MHz ASOS
Unicom 126.20 MHz CTAF
Warning: Do not use this data for real-world aviation or navigation. No guarantee of current accuracy is given.